Time;durP1;ratioP1;P1;durP2;ratioP2;P2;SDS_P1;SDS_P2;PMS_P1;PMS_P2;Temp;Humidity;BMP_temperature;BMP_pressure;BME280_temperature;BME280_humidity;BME280_pressure;Samples;Min_cycle;Max_cycle;Signal;HPM_P1;HPM_P2
2023/04/27 00:02:08;;;;;;;0.52;0.47;;;8.10;99.90;;;;;;4401660;32;20061;-71
2023/04/27 00:04:34;;;;;;;0.35;0.35;;;8.00;99.90;;;;;;4396778;32;20483;-69
2023/04/27 00:07:00;;;;;;;0.40;0.40;;;8.00;99.90;;;;;;4398860;32;20070;-69
2023/04/27 00:09:26;;;;;;;0.40;0.40;;;8.10;99.90;;;;;;4400738;32;20840;-69
2023/04/27 00:11:51;;;;;;;15.02;0.75;;;8.00;99.90;;;;;;4399143;32;20074;-69
2023/04/27 00:14:19;;;;;;;0.30;0.30;;;8.00;99.90;;;;;;4399681;32;20086;-72
2023/04/27 00:16:45;;;;;;;1.12;0.73;;;8.00;99.90;;;;;;4398974;32;20103;-72
2023/04/27 00:19:12;;;;;;;2.00;1.48;;;8.00;99.90;;;;;;4401474;32;20415;-71
2023/04/27 00:21:38;;;;;;;0.40;0.40;;;7.90;99.90;;;;;;4398519;32;20070;-69
2023/04/27 00:24:04;;;;;;;1.75;1.15;;;8.00;99.90;;;;;;4398011;32;20065;-72
2023/04/27 00:26:30;;;;;;;0.70;0.70;;;8.00;99.90;;;;;;4400072;32;20077;-69
2023/04/27 00:28:56;;;;;;;0.40;0.40;;;8.00;99.90;;;;;;4401048;32;20117;-69
2023/04/27 00:31:21;;;;;;;0.30;0.30;;;7.90;99.90;;;;;;4406014;32;20388;-69
2023/04/27 00:33:47;;;;;;;0.30;0.30;;;8.00;99.90;;;;;;4407803;32;20105;-71
2023/04/27 00:36:12;;;;;;;0.40;0.40;;;8.00;99.90;;;;;;4406700;32;20073;-69
2023/04/27 00:38:38;;;;;;;11.20;0.55;;;8.10;99.90;;;;;;4407352;32;20151;-73
2023/04/27 00:41:06;;;;;;;0.40;0.40;;;8.10;99.90;;;;;;4407303;32;20081;-68
2023/04/27 00:43:32;;;;;;;0.40;0.40;;;8.00;99.90;;;;;;4408577;32;20082;-71
2023/04/27 00:45:59;;;;;;;0.40;0.40;;;7.90;99.90;;;;;;4408409;32;20077;-70
2023/04/27 00:48:25;;;;;;;0.30;0.30;;;7.90;99.90;;;;;;4410126;32;20150;-72
2023/04/27 00:50:51;;;;;;;2.15;1.15;;;8.00;99.90;;;;;;4407293;32;20066;-71
2023/04/27 00:53:17;;;;;;;0.65;0.50;;;8.00;99.90;;;;;;4408776;32;20070;-68
2023/04/27 00:55:42;;;;;;;0.45;0.40;;;8.00;99.90;;;;;;4407587;32;20406;-69
2023/04/27 00:58:08;;;;;;;0.50;0.50;;;8.00;99.90;;;;;;4409678;32;20402;-69
2023/04/27 01:00:35;;;;;;;0.40;0.40;;;8.00;99.90;;;;;;4407502;32;20149;-70
2023/04/27 01:03:01;;;;;;;0.60;0.60;;;8.00;99.90;;;;;;4408018;32;20073;-69
2023/04/27 01:05:29;;;;;;;0.30;0.30;;;7.90;99.90;;;;;;4406338;32;20066;-69
2023/04/27 01:07:54;;;;;;;0.40;0.40;;;7.90;99.90;;;;;;4407253;32;20450;-69
2023/04/27 01:10:20;;;;;;;0.40;0.40;;;7.90;99.90;;;;;;4406404;32;20085;-71
2023/04/27 01:12:45;;;;;;;0.40;0.40;;;7.80;99.90;;;;;;4405998;32;20089;-73
2023/04/27 01:15:11;;;;;;;0.30;0.30;;;7.80;99.90;;;;;;4408565;32;20065;-71
2023/04/27 01:17:36;;;;;;;0.30;0.30;;;7.80;99.90;;;;;;4407840;32;20486;-68
2023/04/27 01:20:05;;;;;;;0.35;0.35;;;7.70;99.90;;;;;;4408093;32;20125;-69
2023/04/27 01:22:31;;;;;;;0.47;0.47;;;7.70;99.90;;;;;;4406622;32;20425;-68
2023/04/27 01:24:56;;;;;;;0.50;0.50;;;7.90;99.90;;;;;;4408011;32;20185;-70
2023/04/27 01:27:22;;;;;;;0.37;0.37;;;7.90;99.90;;;;;;4407961;32;20073;-69
2023/04/27 01:29:48;;;;;;;0.40;0.40;;;7.90;99.90;;;;;;4408598;32;20137;-69
2023/04/27 01:32:13;;;;;;;15.10;0.57;;;7.70;99.90;;;;;;4408283;32;20089;-69
2023/04/27 01:34:39;;;;;;;0.35;0.35;;;7.70;99.90;;;;;;4408858;32;20125;-69
2023/04/27 01:37:04;;;;;;;1.27;0.70;;;7.70;99.90;;;;;;4407848;32;20085;-68
2023/04/27 01:39:31;;;;;;;0.37;0.37;;;7.80;99.90;;;;;;4407205;32;20538;-72
2023/04/27 01:41:56;;;;;;;0.30;0.30;;;7.80;99.90;;;;;;4407456;32;20149;-69
2023/04/27 01:44:22;;;;;;;0.80;0.80;;;7.70;99.90;;;;;;4406806;32;20124;-69
2023/04/27 01:46:48;;;;;;;0.50;0.50;;;7.70;99.90;;;;;;4407580;32;20114;-71
2023/04/27 01:49:14;;;;;;;0.30;0.30;;;7.80;99.90;;;;;;4406050;32;21556;-68
2023/04/27 01:51:39;;;;;;;0.40;0.40;;;7.80;99.90;;;;;;4405346;32;20537;-70
2023/04/27 01:54:05;;;;;;;1.85;0.65;;;7.80;99.90;;;;;;4407275;32;20137;-71
2023/04/27 01:56:30;;;;;;;0.37;0.37;;;7.70;99.90;;;;;;4406789;32;20113;-69
2023/04/27 01:58:56;;;;;;;0.40;0.40;;;7.60;99.90;;;;;;4407194;32;20140;-70
2023/04/27 02:01:21;;;;;;;0.30;0.30;;;7.50;99.90;;;;;;4407913;32;20267;-69
2023/04/27 02:03:47;;;;;;;0.30;0.30;;;7.60;99.90;;;;;;4407393;32;20403;-69
2023/04/27 02:06:12;;;;;;;0.40;0.40;;;7.60;99.90;;;;;;4409109;32;20517;-70
2023/04/27 02:08:38;;;;;;;0.40;0.40;;;7.70;99.90;;;;;;4408760;32;20124;-69
2023/04/27 02:11:03;;;;;;;1.17;1.08;;;7.60;99.90;;;;;;4408511;32;20077;-69
2023/04/27 02:13:29;;;;;;;7.70;1.90;;;7.50;99.90;;;;;;4407948;32;20100;-69
2023/04/27 02:15:55;;;;;;;0.45;0.45;;;7.50;99.90;;;;;;4407121;32;20140;-70
2023/04/27 02:18:20;;;;;;;1.50;0.85;;;7.50;99.90;;;;;;4409110;32;20502;-70
2023/04/27 02:20:46;;;;;;;0.30;0.30;;;7.50;99.90;;;;;;4409689;32;20062;-69
2023/04/27 02:23:12;;;;;;;0.40;0.40;;;7.50;99.90;;;;;;4408718;32;20517;-68
2023/04/27 02:25:41;;;;;;;0.40;0.40;;;7.40;99.90;;;;;;4409256;32;20101;-70
2023/04/27 02:28:07;;;;;;;0.57;0.57;;;7.40;99.90;;;;;;4407229;32;20074;-69
2023/04/27 02:30:32;;;;;;;0.35;0.35;;;7.30;99.90;;;;;;4397772;32;20101;-68
2023/04/27 02:32:59;;;;;;;0.40;0.40;;;7.30;99.90;;;;;;4397471;32;20090;-68
2023/04/27 02:35:26;;;;;;;0.40;0.40;;;7.30;99.90;;;;;;4398515;32;20082;-68
2023/04/27 02:37:51;;;;;;;0.55;0.55;;;7.30;99.90;;;;;;4395507;32;20066;-71
2023/04/27 02:40:17;;;;;;;0.32;0.32;;;7.20;99.90;;;;;;4396926;32;20086;-72
2023/04/27 02:42:42;;;;;;;0.30;0.30;;;7.30;99.90;;;;;;4396344;32;20163;-70
2023/04/27 02:45:08;;;;;;;0.40;0.40;;;7.30;99.90;;;;;;4397339;32;20094;-68
2023/04/27 02:47:33;;;;;;;0.75;0.65;;;7.30;99.90;;;;;;4397855;32;20533;-69
2023/04/27 02:50:00;;;;;;;0.68;0.68;;;7.30;99.90;;;;;;4397327;32;20526;-69
2023/04/27 02:52:25;;;;;;;0.47;0.47;;;7.30;99.90;;;;;;4396028;32;20139;-68
2023/04/27 02:54:50;;;;;;;0.98;0.85;;;7.30;99.90;;;;;;4399608;32;20170;-71
2023/04/27 02:57:16;;;;;;;0.40;0.40;;;7.20;99.90;;;;;;4396630;32;20073;-71
2023/04/27 02:59:41;;;;;;;0.37;0.37;;;7.20;99.90;;;;;;4397807;32;20510;-69
2023/04/27 03:02:07;;;;;;;0.73;0.73;;;7.20;99.90;;;;;;4397633;32;20151;-73
2023/04/27 03:04:33;;;;;;;0.37;0.37;;;7.30;99.90;;;;;;4397301;32;20073;-69
2023/04/27 03:06:58;;;;;;;3.60;1.35;;;7.40;99.90;;;;;;4397604;32;20130;-69
2023/04/27 03:09:24;;;;;;;2.28;0.60;;;7.40;99.90;;;;;;4400134;32;20094;-69
2023/04/27 03:11:49;;;;;;;4.68;2.40;;;7.30;99.90;;;;;;4397839;32;20070;-69
2023/04/27 03:14:14;;;;;;;0.40;0.40;;;7.30;99.90;;;;;;4396561;32;20074;-70
2023/04/27 03:16:40;;;;;;;0.20;0.20;;;7.30;99.90;;;;;;4396754;32;20070;-70
2023/04/27 03:19:06;;;;;;;0.35;0.35;;;7.30;99.90;;;;;;4398522;32;20095;-69
2023/04/27 03:21:31;;;;;;;0.62;0.62;;;7.10;99.90;;;;;;4396915;32;20553;-71
2023/04/27 03:23:57;;;;;;;0.82;0.82;;;7.10;99.90;;;;;;4398331;32;20069;-70
2023/04/27 03:26:22;;;;;;;0.40;0.40;;;7.10;99.90;;;;;;4397089;32;20581;-70
2023/04/27 03:28:49;;;;;;;4.50;0.95;;;7.20;99.90;;;;;;4402710;32;20420;-69
2023/04/27 03:31:15;;;;;;;0.40;0.40;;;7.10;99.90;;;;;;4407034;32;20097;-71
2023/04/27 03:33:40;;;;;;;0.43;0.43;;;7.20;99.90;;;;;;4407681;32;20902;-71
2023/04/27 03:36:07;;;;;;;0.30;0.30;;;7.20;99.90;;;;;;4407638;32;20350;-70
2023/04/27 03:38:35;;;;;;;0.35;0.35;;;7.20;99.90;;;;;;4406096;32;20136;-70
2023/04/27 03:41:00;;;;;;;0.40;0.40;;;7.30;99.90;;;;;;4406297;32;20072;-71
2023/04/27 03:43:26;;;;;;;0.47;0.47;;;7.30;99.90;;;;;;4406758;32;20495;-69
2023/04/27 03:45:52;;;;;;;1.12;0.75;;;7.20;99.90;;;;;;4405544;32;20422;-69
2023/04/27 03:48:18;;;;;;;0.30;0.30;;;7.20;99.90;;;;;;4407880;32;20066;-69
2023/04/27 03:50:45;;;;;;;0.40;0.40;;;7.20;99.90;;;;;;4405720;32;20446;-69
2023/04/27 03:53:10;;;;;;;0.30;0.30;;;7.20;99.90;;;;;;4406634;32;20128;-69
2023/04/27 03:55:38;;;;;;;0.30;0.30;;;7.20;99.90;;;;;;4405564;32;20101;-72
2023/04/27 03:58:05;;;;;;;2.92;1.33;;;7.20;99.90;;;;;;4406869;32;20070;-70
2023/04/27 04:00:30;;;;;;;2.40;1.25;;;7.20;99.90;;;;;;4406489;32;20129;-69
2023/04/27 04:02:56;;;;;;;0.77;0.77;;;7.10;99.90;;;;;;4405703;32;20479;-70
2023/04/27 04:05:21;;;;;;;0.40;0.40;;;7.10;99.90;;;;;;4406857;32;20094;-70
2023/04/27 04:07:47;;;;;;;0.40;0.40;;;7.10;99.90;;;;;;4406658;32;20517;-70
2023/04/27 04:10:13;;;;;;;0.40;0.40;;;7.10;99.90;;;;;;4406217;32;20137;-69
2023/04/27 04:12:38;;;;;;;1.35;0.57;;;7.10;99.90;;;;;;4409675;32;20120;-69
2023/04/27 04:15:06;;;;;;;4.65;0.90;;;7.10;99.90;;;;;;4410320;32;20086;-69
2023/04/27 04:17:32;;;;;;;3.37;1.83;;;7.20;99.90;;;;;;4408719;32;20209;-68
2023/04/27 04:19:58;;;;;;;0.30;0.30;;;7.20;99.90;;;;;;4409323;32;20073;-69
2023/04/27 04:22:24;;;;;;;0.32;0.32;;;7.10;99.90;;;;;;4403025;32;20509;-69
2023/04/27 04:24:50;;;;;;;0.30;0.30;;;7.10;99.90;;;;;;4407192;32;20105;-69
2023/04/27 04:27:16;;;;;;;0.52;0.52;;;7.20;99.90;;;;;;4408706;32;20078;-69
2023/04/27 04:29:41;;;;;;;0.40;0.40;;;7.20;99.90;;;;;;4403801;32;20093;-68
2023/04/27 04:32:08;;;;;;;0.40;0.40;;;7.10;99.90;;;;;;4398798;32;20097;-69
2023/04/27 04:34:34;;;;;;;0.30;0.30;;;7.10;99.90;;;;;;4397708;32;20380;-69
2023/04/27 04:37:00;;;;;;;0.60;0.60;;;7.20;99.90;;;;;;4400372;32;20094;-70
2023/04/27 04:39:30;;;;;;;0.55;0.55;;;7.00;99.90;;;;;;4401341;32;20077;-69
2023/04/27 04:41:55;;;;;;;0.30;0.30;;;7.00;99.90;;;;;;4399668;32;20490;-68
2023/04/27 04:44:21;;;;;;;0.30;0.30;;;7.00;99.90;;;;;;4399432;32;20097;-69
2023/04/27 04:46:46;;;;;;;6.55;0.85;;;7.00;99.90;;;;;;4399091;32;20086;-70
2023/04/27 04:49:12;;;;;;;0.37;0.37;;;7.10;99.90;;;;;;4400633;32;20636;-68
2023/04/27 04:51:41;;;;;;;0.30;0.30;;;7.00;99.90;;;;;;4400113;32;20097;-69
2023/04/27 04:54:07;;;;;;;1.57;1.20;;;7.10;99.90;;;;;;4399268;32;20099;-68
2023/04/27 04:56:32;;;;;;;11.25;0.45;;;7.10;99.90;;;;;;4396907;32;20073;-70
2023/04/27 04:58:58;;;;;;;0.37;0.37;;;7.10;99.90;;;;;;4397083;32;20081;-71
2023/04/27 05:01:23;;;;;;;0.65;0.65;;;7.20;99.90;;;;;;4394746;32;20054;-71
2023/04/27 05:03:49;;;;;;;2.75;0.88;;;7.20;99.90;;;;;;4394891;32;20775;-69
2023/04/27 05:06:14;;;;;;;2.55;1.05;;;7.20;99.90;;;;;;4394417;32;20423;-71
2023/04/27 05:08:40;;;;;;;5.03;1.45;;;7.20;99.90;;;;;;4396848;32;20085;-69
2023/04/27 05:11:06;;;;;;;6.82;2.42;;;7.20;99.90;;;;;;4397439;32;20058;-70
2023/04/27 05:13:32;;;;;;;0.40;0.40;;;7.20;99.90;;;;;;4395307;32;20093;-70
2023/04/27 05:15:58;;;;;;;1.20;1.10;;;7.20;99.90;;;;;;4398417;32;20078;-69
2023/04/27 05:18:23;;;;;;;0.30;0.30;;;7.20;99.90;;;;;;4382243;32;20109;-69
2023/04/27 05:20:49;;;;;;;0.37;0.37;;;7.20;99.90;;;;;;4397061;32;20062;-68
2023/04/27 05:23:14;;;;;;;0.30;0.30;;;7.30;99.90;;;;;;4396237;32;20137;-70
2023/04/27 05:25:40;;;;;;;0.30;0.30;;;7.40;99.90;;;;;;4394439;32;21149;-71
2023/04/27 05:28:08;;;;;;;0.95;0.95;;;7.40;99.90;;;;;;4385308;32;20703;-72
2023/04/27 05:30:35;;;;;;;0.55;0.55;;;7.40;99.90;;;;;;4394878;32;20184;-74
2023/04/27 05:33:01;;;;;;;1.08;0.47;;;7.40;99.90;;;;;;4390172;32;20135;-73
2023/04/27 05:35:27;;;;;;;0.30;0.30;;;7.30;99.90;;;;;;4398080;32;20963;-75
2023/04/27 05:37:54;;;;;;;0.40;0.40;;;7.30;99.90;;;;;;4399105;32;20556;-77
2023/04/27 05:40:20;;;;;;;0.30;0.30;;;7.30;99.90;;;;;;4400290;32;20093;-75
2023/04/27 05:42:48;;;;;;;0.73;0.73;;;7.30;99.90;;;;;;4396576;32;20093;-76
2023/04/27 05:45:14;;;;;;;0.55;0.55;;;7.30;99.90;;;;;;4398190;32;20085;-76
2023/04/27 05:47:40;;;;;;;0.30;0.30;;;7.30;99.90;;;;;;4399801;32;20906;-74
2023/04/27 05:50:06;;;;;;;0.85;0.85;;;7.40;99.90;;;;;;4389412;32;20101;-75
2023/04/27 05:52:32;;;;;;;1.20;0.95;;;7.50;99.90;;;;;;4391581;32;20114;-77
2023/04/27 05:54:57;;;;;;;0.50;0.50;;;7.50;99.90;;;;;;4391814;32;20089;-73
2023/04/27 05:57:24;;;;;;;0.50;0.50;;;7.50;99.90;;;;;;4380431;32;20101;-75
2023/04/27 05:59:49;;;;;;;0.40;0.40;;;7.60;99.90;;;;;;4382543;32;20628;-74
2023/04/27 06:02:16;;;;;;;0.37;0.37;;;7.70;99.90;;;;;;4376288;32;20152;-75
2023/04/27 06:04:41;;;;;;;0.30;0.30;;;7.90;99.90;;;;;;4374326;32;20089;-73
2023/04/27 06:07:08;;;;;;;0.30;0.30;;;7.90;99.90;;;;;;4369570;32;20125;-74
2023/04/27 06:09:33;;;;;;;2.28;1.20;;;7.90;99.90;;;;;;4370776;32;20765;-76
2023/04/27 06:11:59;;;;;;;0.40;0.40;;;7.90;99.90;;;;;;4377921;32;20093;-75
2023/04/27 06:14:24;;;;;;;0.70;0.57;;;7.90;99.90;;;;;;4380745;32;20090;-74
2023/04/27 06:16:50;;;;;;;3.53;0.98;;;7.90;99.90;;;;;;4379557;32;20907;-76
2023/04/27 06:19:18;;;;;;;0.30;0.30;;;8.00;99.90;;;;;;4365368;32;20073;-75
2023/04/27 06:21:43;;;;;;;0.30;0.30;;;8.10;99.90;;;;;;4376662;32;20132;-74
2023/04/27 06:24:10;;;;;;;0.50;0.50;;;8.10;99.90;;;;;;4372399;32;20824;-72
2023/04/27 06:26:36;;;;;;;0.30;0.30;;;7.90;99.90;;;;;;4368157;32;22689;-75
2023/04/27 06:29:03;;;;;;;11.40;0.75;;;8.10;99.90;;;;;;4365577;32;20380;-72
2023/04/27 06:31:29;;;;;;;0.40;0.40;;;8.10;99.90;;;;;;4363143;32;20557;-74
2023/04/27 06:33:54;;;;;;;6.03;0.68;;;8.20;99.90;;;;;;4384252;32;20417;-75
2023/04/27 06:36:20;;;;;;;0.40;0.40;;;8.10;99.90;;;;;;4378175;32;20479;-73
2023/04/27 06:38:46;;;;;;;0.35;0.35;;;8.10;99.90;;;;;;4379159;32;20103;-75
2023/04/27 06:41:11;;;;;;;0.40;0.40;;;8.20;99.90;;;;;;4378494;32;20100;-75
2023/04/27 06:43:37;;;;;;;0.30;0.30;;;8.30;99.90;;;;;;4382880;32;20086;-73
2023/04/27 06:46:03;;;;;;;1.00;0.70;;;8.30;99.90;;;;;;4382471;32;20124;-75
2023/04/27 06:48:28;;;;;;;1.20;0.60;;;8.40;99.90;;;;;;4381732;32;20208;-73
2023/04/27 06:50:54;;;;;;;0.25;0.25;;;8.50;99.90;;;;;;4378025;32;20089;-72
2023/04/27 06:53:20;;;;;;;0.40;0.40;;;8.60;99.90;;;;;;4381440;32;20069;-70
2023/04/27 06:55:45;;;;;;;0.40;0.40;;;8.40;99.90;;;;;;4376559;32;20082;-72
2023/04/27 06:58:11;;;;;;;0.30;0.30;;;8.40;99.90;;;;;;4388248;32;20546;-71
2023/04/27 07:00:37;;;;;;;1.37;1.05;;;8.40;99.90;;;;;;4384788;32;20101;-73
2023/04/27 07:03:02;;;;;;;0.88;0.80;;;8.50;99.90;;;;;;4377430;32;20473;-72
2023/04/27 07:05:28;;;;;;;0.40;0.40;;;8.40;99.90;;;;;;4371985;32;20372;-72
2023/04/27 07:07:53;;;;;;;2.35;0.80;;;8.50;99.90;;;;;;4378755;32;20118;-71
2023/04/27 07:10:19;;;;;;;0.30;0.30;;;8.60;99.90;;;;;;4380172;32;20097;-72
2023/04/27 07:12:45;;;;;;;0.35;0.35;;;8.60;99.90;;;;;;4373742;32;20851;-73
2023/04/27 07:15:11;;;;;;;0.30;0.30;;;8.60;99.90;;;;;;4380588;32;20093;-73
2023/04/27 07:17:36;;;;;;;0.65;0.65;;;8.60;99.90;;;;;;4373090;32;20109;-75
2023/04/27 07:20:04;;;;;;;0.30;0.30;;;8.70;99.90;;;;;;4372418;32;20097;-75
2023/04/27 07:22:30;;;;;;;1.52;0.70;;;8.70;99.90;;;;;;4382912;32;20410;-74
2023/04/27 07:24:56;;;;;;;0.40;0.40;;;8.90;99.90;;;;;;4383712;32;20085;-74
2023/04/27 07:27:21;;;;;;;0.30;0.30;;;8.80;99.90;;;;;;4379483;32;20244;-73
2023/04/27 07:29:47;;;;;;;0.37;0.37;;;8.90;99.90;;;;;;4379501;32;21702;-71
2023/04/27 07:32:13;;;;;;;0.45;0.45;;;9.00;99.90;;;;;;4376955;32;20102;-71
2023/04/27 07:34:39;;;;;;;0.40;0.40;;;9.00;99.90;;;;;;4382227;32;20648;-74
2023/04/27 07:37:05;;;;;;;0.45;0.45;;;9.00;99.90;;;;;;4383858;32;20135;-73
2023/04/27 07:39:31;;;;;;;0.45;0.45;;;8.90;99.90;;;;;;4393206;32;20169;-73
2023/04/27 07:41:57;;;;;;;0.70;0.70;;;9.10;99.90;;;;;;4393956;32;20105;-71
2023/04/27 07:44:22;;;;;;;0.40;0.40;;;9.10;99.90;;;;;;4395330;32;20074;-73
2023/04/27 07:46:48;;;;;;;0.30;0.30;;;9.20;99.90;;;;;;4394661;32;20074;-70
2023/04/27 07:49:14;;;;;;;1.77;0.88;;;9.30;99.90;;;;;;4379798;32;20722;-75
2023/04/27 07:51:46;;;;;;;0.30;0.30;;;9.30;99.90;;;;;;4384739;32;20604;-72
2023/04/27 07:54:11;;;;;;;0.28;0.28;;;9.30;99.90;;;;;;4373847;32;20109;-70
2023/04/27 07:56:40;;;;;;;0.55;0.55;;;9.20;99.90;;;;;;4374051;32;20462;-72
2023/04/27 07:59:06;;;;;;;0.30;0.30;;;9.10;99.90;;;;;;4389325;32;21080;-71
2023/04/27 08:01:31;;;;;;;0.50;0.50;;;9.10;99.90;;;;;;4384273;32;20089;-73
2023/04/27 08:03:57;;;;;;;0.30;0.30;;;9.20;99.90;;;;;;4380909;32;20216;-72
2023/04/27 08:06:22;;;;;;;0.50;0.50;;;9.30;99.90;;;;;;4379891;32;20228;-73
2023/04/27 08:08:47;;;;;;;0.60;0.60;;;9.40;99.90;;;;;;4382992;32;20649;-69
2023/04/27 08:11:13;;;;;;;4.03;0.85;;;9.70;99.90;;;;;;4380170;32;20110;-73
2023/04/27 08:13:39;;;;;;;0.40;0.40;;;9.80;99.90;;;;;;4379735;32;20124;-73
2023/04/27 08:16:06;;;;;;;0.40;0.40;;;9.70;99.90;;;;;;4377396;32;20114;-73
2023/04/27 08:18:31;;;;;;;6.05;1.60;;;9.50;99.90;;;;;;4375044;32;20097;-74
2023/04/27 08:20:57;;;;;;;0.73;0.50;;;9.60;99.90;;;;;;4379675;32;20084;-69
2023/04/27 08:23:26;;;;;;;0.40;0.40;;;9.80;99.90;;;;;;4381724;32;20130;-72
2023/04/27 08:25:58;;;;;;;0.50;0.50;;;10.10;99.90;;;;;;4379640;32;20082;-71
2023/04/27 08:28:30;;;;;;;0.50;0.50;;;10.20;99.90;;;;;;4386057;32;20438;-70
2023/04/27 08:30:55;;;;;;;0.40;0.40;;;10.30;99.90;;;;;;4384098;32;20164;-71
2023/04/27 08:33:21;;;;;;;0.37;0.37;;;10.30;99.90;;;;;;4380505;32;20127;-74
2023/04/27 08:35:46;;;;;;;0.75;0.75;;;10.10;99.90;;;;;;4385349;32;20090;-71
2023/04/27 08:38:12;;;;;;;0.62;0.62;;;9.80;99.90;;;;;;4390850;32;20073;-73
2023/04/27 08:40:44;;;;;;;0.68;0.68;;;9.70;99.90;;;;;;4384407;32;20434;-72
2023/04/27 08:43:10;;;;;;;0.30;0.30;;;9.50;99.90;;;;;;4384645;32;20082;-73
2023/04/27 08:45:38;;;;;;;0.70;0.70;;;9.20;99.90;;;;;;4386252;32;20148;-73
2023/04/27 08:48:21;;;;;;;9.93;0.80;;;9.10;99.90;;;;;;4391077;32;20691;-68
2023/04/27 08:50:50;;;;;;;4.37;1.50;;;9.10;99.90;;;;;;4374460;32;20211;-72
2023/04/27 08:53:18;;;;;;;0.40;0.40;;;9.20;99.90;;;;;;4371072;32;21326;-74
2023/04/27 08:55:43;;;;;;;2.33;1.30;;;9.40;99.90;;;;;;4369849;32;20081;-73
2023/04/27 08:58:09;;;;;;;1.02;0.85;;;9.40;99.90;;;;;;4375294;32;20517;-73
2023/04/27 09:00:42;;;;;;;0.30;0.30;;;9.40;99.90;;;;;;4374272;32;21419;-74
2023/04/27 09:03:24;;;;;;;0.30;0.30;;;9.60;99.90;;;;;;4377573;32;20117;-70
2023/04/27 09:05:50;;;;;;;0.30;0.30;;;10.00;99.90;;;;;;4374631;32;20176;-73
2023/04/27 09:08:43;;;;;;;0.60;0.60;;;10.50;99.90;;;;;;4403479;32;20077;-70
2023/04/27 09:11:09;;;;;;;0.35;0.35;;;10.50;99.90;;;;;;4393080;32;20165;-70
2023/04/27 09:13:37;;;;;;;0.30;0.30;;;10.40;99.90;;;;;;4396910;32;20093;-70
2023/04/27 09:16:02;;;;;;;0.50;0.50;;;10.20;99.90;;;;;;4378174;32;20117;-72
2023/04/27 09:18:28;;;;;;;0.43;0.43;;;10.10;99.90;;;;;;4380722;32;20996;-73
2023/04/27 09:20:55;;;;;;;1.65;1.08;;;10.10;99.90;;;;;;4382934;32;20113;-69
2023/04/27 09:23:26;;;;;;;3.00;1.30;;;10.50;99.90;;;;;;4378409;32;20293;-73
2023/04/27 09:26:02;;;;;;;0.45;0.45;;;11.10;99.90;;;;;;4384992;32;20814;-71
2023/04/27 09:28:29;;;;;;;0.35;0.35;;;11.70;99.90;;;;;;4382154;32;20398;-70
2023/04/27 09:30:58;;;;;;;0.50;0.50;;;11.20;99.90;;;;;;4373560;32;20165;-71
2023/04/27 09:33:25;;;;;;;0.30;0.30;;;10.90;99.90;;;;;;4376336;32;20572;-74
2023/04/27 09:35:51;;;;;;;0.43;0.43;;;10.90;99.90;;;;;;4380889;32;20105;-71
2023/04/27 09:38:18;;;;;;;2.08;0.77;;;10.80;99.90;;;;;;4365780;32;20156;-71
2023/04/27 09:40:44;;;;;;;0.40;0.35;;;10.60;99.90;;;;;;4372976;32;20102;-73
2023/04/27 09:43:11;;;;;;;1.87;0.60;;;10.50;99.90;;;;;;4369453;32;20089;-72
2023/04/27 09:45:37;;;;;;;1.10;0.82;;;10.10;99.90;;;;;;4370462;32;20093;-73
2023/04/27 09:48:05;;;;;;;0.40;0.40;;;9.90;99.90;;;;;;4372150;32;20503;-74
2023/04/27 09:50:37;;;;;;;0.30;0.30;;;9.80;99.90;;;;;;4378179;32;20549;-72
2023/04/27 09:53:14;;;;;;;2.58;0.82;;;9.80;99.90;;;;;;4372820;32;20640;-70
2023/04/27 09:55:58;;;;;;;0.40;0.40;;;9.80;99.90;;;;;;4391574;32;20443;-73
2023/04/27 09:58:36;;;;;;;7.87;0.77;;;9.80;99.90;;;;;;4391773;32;20994;-74
2023/04/27 10:01:33;;;;;;;1.65;0.40;;;9.90;99.90;;;;;;4395941;32;20447;-71
2023/04/27 10:04:31;;;;;;;0.30;0.30;;;10.10;99.90;;;;;;4391289;32;20107;-73
2023/04/27 10:07:07;;;;;;;0.50;0.50;;;10.20;99.90;;;;;;4369291;32;20707;-74
2023/04/27 10:09:45;;;;;;;0.30;0.30;;;9.90;99.90;;;;;;4383552;32;20118;-71
2023/04/27 10:12:20;;;;;;;0.40;0.40;;;10.10;99.90;;;;;;4363571;32;20813;-74
2023/04/27 10:14:56;;;;;;;0.30;0.30;;;10.10;99.90;;;;;;4370489;32;20327;-74
2023/04/27 10:17:46;;;;;;;0.35;0.35;;;9.80;99.90;;;;;;4382995;32;20384;-74
2023/04/27 10:20:11;;;;;;;0.28;0.28;;;9.90;99.90;;;;;;4384473;32;21152;-73
2023/04/27 10:22:39;;;;;;;0.30;0.30;;;9.80;99.90;;;;;;4377734;32;20102;-71
2023/04/27 10:25:20;;;;;;;0.40;0.40;;;10.30;99.90;;;;;;4382601;32;20379;-75
2023/04/27 10:27:51;;;;;;;0.30;0.30;;;10.90;99.90;;;;;;4390784;32;20098;-74
2023/04/27 10:30:19;;;;;;;0.30;0.30;;;11.30;99.40;;;;;;4392630;32;20129;-74
2023/04/27 10:32:54;;;;;;;0.40;0.40;;;11.10;99.00;;;;;;4387042;32;20315;-71
2023/04/27 10:35:22;;;;;;;0.32;0.32;;;11.60;98.70;;;;;;4389754;32;20116;-74
2023/04/27 10:37:47;;;;;;;0.57;0.57;;;11.90;99.20;;;;;;4390344;32;20090;-73
2023/04/27 10:40:14;;;;;;;0.73;0.73;;;12.00;99.20;;;;;;4390417;32;20565;-69
2023/04/27 10:42:40;;;;;;;0.50;0.50;;;12.20;99.80;;;;;;4388063;32;20109;-74
2023/04/27 10:45:07;;;;;;;1.62;0.70;;;12.60;98.20;;;;;;4385916;32;20089;-73
2023/04/27 10:47:37;;;;;;;0.40;0.40;;;12.70;97.20;;;;;;4396370;32;20085;-69
2023/04/27 10:50:04;;;;;;;0.30;0.30;;;13.10;96.70;;;;;;4393210;32;20236;-69
2023/04/27 10:52:30;;;;;;;0.35;0.35;;;12.80;96.80;;;;;;4381531;32;20432;-73
2023/04/27 10:54:56;;;;;;;0.40;0.40;;;12.40;97.40;;;;;;4379752;32;20139;-70
2023/04/27 10:57:22;;;;;;;3.20;1.77;;;12.20;97.40;;;;;;4384792;32;20332;-70
2023/04/27 10:59:54;;;;;;;0.30;0.30;;;11.80;98.10;;;;;;4376292;32;20716;-75
2023/04/27 11:02:28;;;;;;;0.37;0.37;;;11.60;99.50;;;;;;4373531;32;20113;-73
2023/04/27 11:04:55;;;;;;;0.40;0.40;;;11.80;99.00;;;;;;4372584;32;20086;-75
2023/04/27 11:07:25;;;;;;;0.60;0.50;;;11.90;99.00;;;;;;4373076;32;20085;-74
2023/04/27 11:09:51;;;;;;;0.65;0.57;;;12.70;98.20;;;;;;4385283;32;20921;-72
2023/04/27 11:12:17;;;;;;;0.35;0.35;;;13.30;97.00;;;;;;4391638;32;20458;-73
2023/04/27 11:14:44;;;;;;;0.40;0.40;;;13.90;95.80;;;;;;4402154;32;20709;-73
2023/04/27 11:17:15;;;;;;;0.40;0.40;;;13.50;93.50;;;;;;4405111;32;20093;-69
2023/04/27 11:19:46;;;;;;;0.37;0.37;;;14.10;92.00;;;;;;4402149;32;20090;-73
2023/04/27 11:22:12;;;;;;;0.30;0.30;;;13.80;93.20;;;;;;4399627;32;20090;-75
2023/04/27 11:24:46;;;;;;;0.30;0.30;;;13.40;93.40;;;;;;4393715;32;20094;-70
2023/04/27 11:27:12;;;;;;;0.30;0.30;;;13.20;95.40;;;;;;4392862;32;20066;-74
2023/04/27 11:29:40;;;;;;;0.30;0.30;;;13.20;94.10;;;;;;4393319;32;20435;-69
2023/04/27 11:32:06;;;;;;;0.37;0.37;;;13.10;93.80;;;;;;4403142;32;20106;-74
2023/04/27 11:34:35;;;;;;;18.98;0.70;;;12.80;93.70;;;;;;4395201;32;20090;-73
2023/04/27 11:37:04;;;;;;;0.35;0.35;;;12.50;94.20;;;;;;4398803;32;20132;-70
2023/04/27 11:39:37;;;;;;;0.30;0.30;;;12.30;93.80;;;;;;4397419;32;20247;-68
2023/04/27 11:42:21;;;;;;;0.30;0.30;;;12.10;93.80;;;;;;4403576;32;20561;-69
2023/04/27 11:44:56;;;;;;;0.73;0.73;;;12.00;93.20;;;;;;4377789;32;128189;-72
2023/04/27 11:47:24;;;;;;;5.28;2.15;;;11.90;94.50;;;;;;4399888;32;20129;-73
2023/04/27 11:49:51;;;;;;;0.50;0.50;;;12.10;94.70;;;;;;4395251;32;20093;-71
2023/04/27 11:52:20;;;;;;;0.50;0.50;;;12.10;94.30;;;;;;4398187;32;20146;-67
2023/04/27 11:54:55;;;;;;;0.35;0.35;;;12.20;92.80;;;;;;4392958;32;20177;-71
2023/04/27 11:57:26;;;;;;;0.43;0.43;;;12.20;93.30;;;;;;4385261;32;20074;-69
2023/04/27 11:59:53;;;;;;;0.37;0.37;;;12.40;93.40;;;;;;4400270;32;20066;-71
2023/04/27 12:02:21;;;;;;;0.30;0.30;;;12.40;93.50;;;;;;4391513;32;20158;-70
2023/04/27 12:04:52;;;;;;;0.32;0.32;;;12.50;92.60;;;;;;4399766;32;20101;-71
2023/04/27 12:07:18;;;;;;;0.40;0.40;;;12.50;93.70;;;;;;4396702;32;20489;-68
2023/04/27 12:09:44;;;;;;;0.32;0.32;;;12.60;93.50;;;;;;4390082;32;20707;-70
2023/04/27 12:12:11;;;;;;;1.20;0.85;;;12.40;93.00;;;;;;4394982;32;20070;-71
2023/04/27 12:14:37;;;;;;;0.30;0.30;;;12.40;92.20;;;;;;4371855;32;21240;-73
2023/04/27 12:17:02;;;;;;;0.30;0.30;;;12.30;92.40;;;;;;4383171;32;22033;-72
2023/04/27 12:19:29;;;;;;;0.62;0.50;;;12.30;93.30;;;;;;4370378;32;20241;-73
2023/04/27 12:21:55;;;;;;;0.30;0.30;;;12.60;93.60;;;;;;4371305;32;21012;-73
2023/04/27 12:24:20;;;;;;;0.30;0.30;;;12.50;93.00;;;;;;4375949;32;20109;-73
2023/04/27 12:26:47;;;;;;;0.40;0.40;;;12.40;92.60;;;;;;4380195;32;20160;-73
2023/04/27 12:29:12;;;;;;;0.47;0.47;;;12.70;92.40;;;;;;4361180;32;20242;-74
2023/04/27 12:31:38;;;;;;;0.90;0.80;;;13.40;92.00;;;;;;4364738;32;20109;-74
2023/04/27 12:34:03;;;;;;;0.30;0.30;;;14.00;91.60;;;;;;4374089;32;20162;-75
2023/04/27 12:36:29;;;;;;;0.32;0.32;;;14.70;88.60;;;;;;4375912;32;20640;-73
2023/04/27 12:38:58;;;;;;;0.30;0.30;;;15.30;89.10;;;;;;4369908;32;20419;-74
2023/04/27 12:41:24;;;;;;;0.30;0.30;;;15.30;86.40;;;;;;4371790;32;20466;-74
2023/04/27 12:43:50;;;;;;;1.00;0.95;;;15.00;87.30;;;;;;4370461;32;20314;-74
2023/04/27 12:46:17;;;;;;;0.30;0.30;;;14.40;88.80;;;;;;4370388;32;20097;-74
2023/04/27 12:48:42;;;;;;;0.40;0.40;;;13.90;90.40;;;;;;4372926;32;20455;-74
2023/04/27 12:51:08;;;;;;;0.40;0.40;;;13.50;90.40;;;;;;4367691;32;20228;-74
2023/04/27 12:53:33;;;;;;;0.30;0.30;;;13.00;91.00;;;;;;4372133;32;20161;-74